PWSweather.com
Personal Weather Stations
Station Observations
NBW76
Silver Creek, North Bend, WA 98065

Silver CreekNorth Bend, WA 98065

Lat: 47.4993612, Lon: -121.7783245

Elevation: 443

Station Type: Davisd VP2 + Solar + UV + Webcam

Latest ConditionsUpdated 8:30:00 PM PDT Tuesday, Mar 26, 2019
Currently Today's Max Today's Min Today's Average
Temperature 46.4°F8.0°C 58.4°F14.7°C 41.1°F5.1°C 48.2°F9.0°C
Dew Point 36.7°F2.6°C 42.4°F5.8°C 33.7°F0.9°C 38.3°F3.5°C
Winds 4.6 mph SE7.4 kmh SE 5.8 mph -9.3 kmh - - 2.3 mph 3.7 kmh
Wind Gusts 5.8 mph9.3 kmh 9.2 mph14.8 kmh - -
Humidity 69% 90% 41% 72%
Pressure 29.98 in1015.2 mb 30.08 in1018.6 mb 29.96 in1014.6 mb -
Precipitation - 0.12 in3.0 mm - -
Hour Temp Dew Point Humidity Winds Wind Gusts Pressure Precip Precip Rate Daily Precip Total
08:30 PM 46.4°F8.0°C 36.7°F2.6°C 69% 4.6 mph SE7.4 kmh SE 5.8 mph9.3 kmh 29.98 in1015.2 mb - 0.00 in0.0 mm 0.12 in3.0 mm
08:20 PM 45.5°F7.5°C 36.9°F2.7°C 72% 3.5 mph SE5.6 kmh SE 4.6 mph7.4 kmh 29.98 in1015.2 mb - 0.00 in0.0 mm 0.12 in3.0 mm
08:10 PM 45.6°F7.6°C 37.4°F3.0°C 73% 2.3 mph SE3.7 kmh SE 3.5 mph5.6 kmh 29.98 in1015.2 mb - 0.00 in0.0 mm 0.12 in3.0 mm
08:00 PM 46.2°F7.9°C 38.0°F3.3°C 73% 2.3 mph SSW3.7 kmh SSW 3.5 mph5.6 kmh 29.98 in1015.2 mb - 0.00 in0.0 mm 0.12 in3.0 mm
07:50 PM 47.1°F8.4°C 37.9°F3.3°C 70% 1.2 mph SSW1.9 kmh SSW 2.3 mph3.7 kmh 29.97 in1014.9 mb - 0.00 in0.0 mm 0.12 in3.0 mm
07:40 PM 47.9°F8.8°C 37.5°F3.1°C 67% 1.2 mph SSW1.9 kmh SSW 2.3 mph3.7 kmh 29.97 in1014.9 mb - 0.00 in0.0 mm 0.12 in3.0 mm
07:30 PM 48.7°F9.3°C 37.4°F3.0°C 65% 1.2 mph SSW1.9 kmh SSW 2.3 mph3.7 kmh 29.97 in1014.9 mb - 0.00 in0.0 mm 0.12 in3.0 mm
07:20 PM 49.2°F9.6°C 37.9°F3.3°C 65% 2.3 mph SSW3.7 kmh SSW 2.3 mph3.7 kmh 29.97 in1014.9 mb - 0.00 in0.0 mm 0.12 in3.0 mm
07:10 PM 50.3°F10.2°C 37.8°F3.2°C 62% 1.2 mph NW1.9 kmh NW 3.5 mph5.6 kmh 29.97 in1014.9 mb - 0.00 in0.0 mm 0.12 in3.0 mm
07:00 PM 51.5°F10.8°C 37.6°F3.1°C 59% 1.2 mph SW1.9 kmh SW 2.3 mph3.7 kmh 29.96 in1014.6 mb - 0.00 in0.0 mm 0.12 in3.0 mm
06:50 PM 53.2°F11.8°C 37.9°F3.3°C 56% 2.3 mph N3.7 kmh N 2.3 mph3.7 kmh 29.96 in1014.6 mb - 0.00 in0.0 mm 0.12 in3.0 mm
06:40 PM 55.5°F13.1°C 38.1°F3.4°C 52% 2.3 mph N3.7 kmh N 3.5 mph5.6 kmh 29.96 in1014.6 mb - 0.00 in0.0 mm 0.12 in3.0 mm
06:30 PM 57.3°F14.1°C 37.8°F3.2°C 48% 2.3 mph SW3.7 kmh SW 3.5 mph5.6 kmh 29.97 in1014.9 mb - 0.00 in0.0 mm 0.12 in3.0 mm
06:20 PM 57.9°F14.4°C 37.8°F3.2°C 47% 1.2 mph SW1.9 kmh SW 3.5 mph5.6 kmh 29.97 in1014.9 mb - 0.00 in0.0 mm 0.12 in3.0 mm
06:10 PM 58.0°F14.4°C 35.6°F2.0°C 43% 1.2 mph SW1.9 kmh SW 3.5 mph5.6 kmh 29.97 in1014.9 mb - 0.00 in0.0 mm 0.12 in3.0 mm
06:00 PM 57.5°F14.2°C 34.6°F1.4°C 42% 2.3 mph W3.7 kmh W 4.6 mph7.4 kmh 29.97 in1014.9 mb - 0.00 in0.0 mm 0.12 in3.0 mm
05:50 PM 57.3°F14.1°C 33.8°F1.0°C 41% 3.5 mph WSW5.6 kmh WSW 3.5 mph5.6 kmh 29.97 in1014.9 mb - 0.00 in0.0 mm 0.12 in3.0 mm
05:40 PM 57.3°F14.1°C 34.3°F1.3°C 42% 3.5 mph SW5.6 kmh SW 4.6 mph7.4 kmh 29.98 in1015.2 mb - 0.00 in0.0 mm 0.12 in3.0 mm
05:30 PM 58.4°F14.7°C 36.0°F2.2°C 43% 2.3 mph WSW3.7 kmh WSW 5.8 mph9.3 kmh 29.98 in1015.2 mb - 0.00 in0.0 mm 0.12 in3.0 mm
05:20 PM 58.0°F14.4°C 35.0°F1.7°C 42% 1.2 mph SE1.9 kmh SE 3.5 mph5.6 kmh 29.98 in1015.2 mb - 0.00 in0.0 mm 0.12 in3.0 mm
05:10 PM 57.5°F14.2°C 36.3°F2.4°C 45% 2.3 mph SW3.7 kmh SW 3.5 mph5.6 kmh 29.98 in1015.2 mb - 0.00 in0.0 mm 0.12 in3.0 mm
05:00 PM 57.3°F14.1°C 35.5°F1.9°C 44% 3.5 mph W5.6 kmh W 4.6 mph7.4 kmh 29.99 in1015.6 mb - 0.00 in0.0 mm 0.12 in3.0 mm
04:50 PM 57.2°F14.0°C 36.6°F2.6°C 46% 1.2 mph SE1.9 kmh SE 3.5 mph5.6 kmh 29.99 in1015.6 mb - 0.00 in0.0 mm 0.12 in3.0 mm
04:40 PM 57.8°F14.3°C 37.7°F3.2°C 47% 1.2 mph SW1.9 kmh SW 3.5 mph5.6 kmh 29.99 in1015.6 mb - 0.00 in0.0 mm 0.12 in3.0 mm
04:30 PM 57.4°F14.1°C 35.1°F1.7°C 43% 3.5 mph SSE5.6 kmh SSE 4.6 mph7.4 kmh 30.00 in1015.9 mb - 0.00 in0.0 mm 0.12 in3.0 mm
04:20 PM 56.5°F13.6°C 34.3°F1.3°C 43% 4.6 mph SSE7.4 kmh SSE 4.6 mph7.4 kmh 30.00 in1015.9 mb - 0.00 in0.0 mm 0.12 in3.0 mm
04:10 PM 56.9°F13.8°C 35.7°F2.1°C 45% 3.5 mph S5.6 kmh S 6.9 mph11.1 kmh 30.00 in1015.9 mb - 0.00 in0.0 mm 0.12 in3.0 mm
04:00 PM 58.0°F14.4°C 36.2°F2.3°C 44% 3.5 mph SW5.6 kmh SW 3.5 mph5.6 kmh 30.00 in1015.9 mb - 0.00 in0.0 mm 0.12 in3.0 mm
03:50 PM 56.9°F13.8°C 34.6°F1.4°C 43% 2.3 mph S3.7 kmh S 3.5 mph5.6 kmh 30.00 in1015.9 mb - 0.00 in0.0 mm 0.12 in3.0 mm
03:40 PM 56.7°F13.7°C 35.5°F1.9°C 45% 3.5 mph SW5.6 kmh SW 3.5 mph5.6 kmh 30.01 in1016.3 mb - 0.00 in0.0 mm 0.12 in3.0 mm
03:30 PM 57.7°F14.3°C 37.0°F2.8°C 46% 2.3 mph SSE3.7 kmh SSE 4.6 mph7.4 kmh 30.01 in1016.3 mb - 0.00 in0.0 mm 0.12 in3.0 mm
03:20 PM 56.0°F13.3°C 35.5°F1.9°C 46% 3.5 mph SE5.6 kmh SE 4.6 mph7.4 kmh 30.01 in1016.3 mb - 0.00 in0.0 mm 0.12 in3.0 mm
03:10 PM 55.9°F13.3°C 33.7°F0.9°C 43% 3.5 mph S5.6 kmh S 3.5 mph5.6 kmh 30.02 in1016.6 mb - 0.00 in0.0 mm 0.12 in3.0 mm
03:00 PM 57.1°F13.9°C 35.4°F1.9°C 44% 4.6 mph SSE7.4 kmh SSE 5.8 mph9.3 kmh 30.02 in1016.6 mb - 0.00 in0.0 mm 0.12 in3.0 mm
02:50 PM 56.9°F13.8°C 36.9°F2.7°C 47% 3.5 mph SE5.6 kmh SE 4.6 mph7.4 kmh 30.02 in1016.6 mb - 0.00 in0.0 mm 0.12 in3.0 mm
02:40 PM 56.5°F13.6°C 36.0°F2.2°C 46% 4.6 mph ESE7.4 kmh ESE 5.8 mph9.3 kmh 30.03 in1016.9 mb - 0.00 in0.0 mm 0.12 in3.0 mm
02:30 PM 57.1°F13.9°C 37.6°F3.1°C 48% 2.3 mph SE3.7 kmh SE 3.5 mph5.6 kmh 30.03 in1016.9 mb - 0.00 in0.0 mm 0.12 in3.0 mm
02:20 PM 54.8°F12.7°C 36.0°F2.2°C 49% 2.3 mph W3.7 kmh W 3.5 mph5.6 kmh 30.04 in1017.3 mb - 0.00 in0.0 mm 0.12 in3.0 mm
02:10 PM 57.2°F14.0°C 37.1°F2.8°C 47% 2.3 mph SE3.7 kmh SE 6.9 mph11.1 kmh 30.04 in1017.3 mb - 0.00 in0.0 mm 0.12 in3.0 mm
02:00 PM 55.1°F12.8°C 37.3°F2.9°C 51% 1.2 mph SW1.9 kmh SW 4.6 mph7.4 kmh 30.04 in1017.3 mb - 0.00 in0.0 mm 0.12 in3.0 mm
01:50 PM 54.6°F12.6°C 35.8°F2.1°C 49% 2.3 mph S3.7 kmh S 3.5 mph5.6 kmh 30.05 in1017.6 mb - 0.00 in0.0 mm 0.12 in3.0 mm
01:40 PM 55.0°F12.8°C 37.2°F2.9°C 51% 1.2 mph WSW1.9 kmh WSW 2.3 mph3.7 kmh 30.05 in1017.6 mb - 0.00 in0.0 mm 0.12 in3.0 mm
01:30 PM 54.6°F12.6°C 36.8°F2.7°C 51% 2.3 mph SE3.7 kmh SE 3.5 mph5.6 kmh 30.05 in1017.6 mb - 0.00 in0.0 mm 0.12 in3.0 mm
01:20 PM 54.3°F12.4°C 37.0°F2.8°C 52% 1.2 mph SE1.9 kmh SE 1.2 mph1.9 kmh 30.05 in1017.6 mb - 0.00 in0.0 mm 0.12 in3.0 mm
01:10 PM 54.4°F12.4°C 37.2°F2.9°C 52% 2.3 mph ESE3.7 kmh ESE 3.5 mph5.6 kmh 30.05 in1017.6 mb - 0.00 in0.0 mm 0.12 in3.0 mm
01:00 PM 54.1°F12.3°C 37.3°F2.9°C 53% 2.3 mph SE3.7 kmh SE 3.5 mph5.6 kmh 30.05 in1017.6 mb - 0.00 in0.0 mm 0.12 in3.0 mm
12:50 PM 52.9°F11.6°C 36.3°F2.4°C 53% 3.5 mph SE5.6 kmh SE 3.5 mph5.6 kmh 30.06 in1017.9 mb - 0.00 in0.0 mm 0.12 in3.0 mm
12:40 PM 52.8°F11.6°C 36.6°F2.6°C 54% 1.2 mph SE1.9 kmh SE 2.3 mph3.7 kmh 30.06 in1017.9 mb - 0.00 in0.0 mm 0.12 in3.0 mm
12:30 PM 52.9°F11.6°C 36.7°F2.6°C 54% 2.3 mph SE3.7 kmh SE 3.5 mph5.6 kmh 30.06 in1017.9 mb - 0.00 in0.0 mm 0.12 in3.0 mm
12:20 PM 52.8°F11.6°C 38.0°F3.3°C 57% 3.5 mph SE5.6 kmh SE 5.8 mph9.3 kmh 30.07 in1018.3 mb - 0.00 in0.0 mm 0.12 in3.0 mm
12:10 PM 53.5°F11.9°C 38.2°F3.4°C 56% 3.5 mph SW5.6 kmh SW 5.8 mph9.3 kmh 30.07 in1018.3 mb - 0.00 in0.0 mm 0.12 in3.0 mm
12:00 PM 53.7°F12.1°C 39.7°F4.3°C 59% 2.3 mph E3.7 kmh E 5.8 mph9.3 kmh 30.07 in1018.3 mb - 0.00 in0.0 mm 0.12 in3.0 mm
11:50 AM 53.4°F11.9°C 39.8°F4.3°C 60% 4.6 mph ESE7.4 kmh ESE 8.1 mph13.0 kmh 30.07 in1018.3 mb - 0.00 in0.0 mm 0.12 in3.0 mm
11:40 AM 52.5°F11.4°C 39.0°F3.9°C 60% 3.5 mph SE5.6 kmh SE 4.6 mph7.4 kmh 30.07 in1018.3 mb - 0.00 in0.0 mm 0.12 in3.0 mm
11:30 AM 51.9°F11.1°C 38.9°F3.8°C 61% 1.2 mph E1.9 kmh E 3.5 mph5.6 kmh 30.07 in1018.3 mb - 0.00 in0.0 mm 0.12 in3.0 mm
11:20 AM 51.5°F10.8°C 38.9°F3.8°C 62% 1.2 mph NNE1.9 kmh NNE 2.3 mph3.7 kmh 30.07 in1018.3 mb - 0.00 in0.0 mm 0.12 in3.0 mm
11:10 AM 50.7°F10.4°C 37.8°F3.2°C 61% 1.2 mph ESE1.9 kmh ESE 3.5 mph5.6 kmh 30.08 in1018.6 mb - 0.00 in0.0 mm 0.12 in3.0 mm
11:00 AM 50.4°F10.2°C 39.0°F3.9°C 65% 1.2 mph E1.9 kmh E 2.3 mph3.7 kmh 30.08 in1018.6 mb - 0.00 in0.0 mm 0.12 in3.0 mm
10:50 AM 49.1°F9.5°C 38.2°F3.4°C 66% 3.5 mph SE5.6 kmh SE 5.8 mph9.3 kmh 30.08 in1018.6 mb - 0.00 in0.0 mm 0.12 in3.0 mm
10:40 AM 48.5°F9.2°C 39.2°F4.0°C 70% 1.2 mph E1.9 kmh E 3.5 mph5.6 kmh 30.08 in1018.6 mb - 0.00 in0.0 mm 0.12 in3.0 mm
10:30 AM 48.3°F9.1°C 39.3°F4.1°C 71% 2.3 mph ESE3.7 kmh ESE 3.5 mph5.6 kmh 30.08 in1018.6 mb - 0.00 in0.0 mm 0.12 in3.0 mm
10:20 AM 47.2°F8.4°C 40.7°F4.8°C 78% 4.6 mph ENE7.4 kmh ENE 5.8 mph9.3 kmh 30.08 in1018.6 mb - 0.00 in0.0 mm 0.12 in3.0 mm
10:10 AM 46.6°F8.1°C 42.3°F5.7°C 85% 2.3 mph SE3.7 kmh SE 3.5 mph5.6 kmh 30.08 in1018.6 mb - 0.00 in0.0 mm 0.12 in3.0 mm
10:00 AM 46.3°F7.9°C 42.4°F5.8°C 86% Calm Calm 1.2 mph1.9 kmh 30.08 in1018.6 mb - 0.01 in0.3 mm 0.12 in3.0 mm
09:50 AM 45.4°F7.4°C 42.1°F5.6°C 88% 4.6 mph SE7.4 kmh SE 5.8 mph9.3 kmh 30.08 in1018.6 mb - 0.01 in0.3 mm 0.12 in3.0 mm
09:40 AM 44.6°F7.0°C 41.2°F5.1°C 88% 3.5 mph SE5.6 kmh SE 4.6 mph7.4 kmh 30.08 in1018.6 mb - 0.01 in0.3 mm 0.12 in3.0 mm
09:30 AM 44.2°F6.8°C 41.2°F5.1°C 89% 1.2 mph SE1.9 kmh SE 2.3 mph3.7 kmh 30.08 in1018.6 mb - 0.01 in0.3 mm 0.12 in3.0 mm
09:20 AM 43.9°F6.6°C 40.9°F4.9°C 89% 2.3 mph ESE3.7 kmh ESE 3.5 mph5.6 kmh 30.08 in1018.6 mb - 0.01 in0.3 mm 0.12 in3.0 mm
09:10 AM 43.1°F6.2°C 40.1°F4.5°C 89% 2.3 mph ESE3.7 kmh ESE 3.5 mph5.6 kmh 30.08 in1018.6 mb - 0.01 in0.3 mm 0.12 in3.0 mm
09:00 AM 42.9°F6.1°C 39.9°F4.4°C 89% 3.5 mph SE5.6 kmh SE 3.5 mph5.6 kmh 30.07 in1018.3 mb - 0.01 in0.3 mm 0.12 in3.0 mm
08:50 AM 42.7°F5.9°C 39.7°F4.3°C 89% 4.6 mph SE7.4 kmh SE 5.8 mph9.3 kmh 30.07 in1018.3 mb - 0.00 in0.0 mm 0.11 in2.8 mm
08:40 AM 42.1°F5.6°C 39.4°F4.1°C 90% 2.3 mph SE3.7 kmh SE 3.5 mph5.6 kmh 30.07 in1018.3 mb - 0.00 in0.0 mm 0.11 in2.8 mm
08:30 AM 42.0°F5.6°C 39.3°F4.1°C 90% 2.3 mph E3.7 kmh E 2.3 mph3.7 kmh 30.07 in1018.3 mb - 0.00 in0.0 mm 0.11 in2.8 mm
08:20 AM 41.9°F5.5°C 39.2°F4.0°C 90% 3.5 mph SE5.6 kmh SE 3.5 mph5.6 kmh 30.07 in1018.3 mb - 0.00 in0.0 mm 0.11 in2.8 mm
08:10 AM 41.2°F5.1°C 38.5°F3.6°C 90% 2.3 mph N3.7 kmh N 2.3 mph3.7 kmh 30.07 in1018.3 mb - 0.00 in0.0 mm 0.11 in2.8 mm
08:00 AM 41.3°F5.2°C 38.6°F3.7°C 90% 3.5 mph ENE5.6 kmh ENE 3.5 mph5.6 kmh 30.06 in1017.9 mb - 0.00 in0.0 mm 0.11 in2.8 mm
07:50 AM 41.3°F5.2°C 38.6°F3.7°C 90% 1.2 mph E1.9 kmh E 3.5 mph5.6 kmh 30.06 in1017.9 mb - 0.00 in0.0 mm 0.11 in2.8 mm
07:40 AM 41.2°F5.1°C 38.5°F3.6°C 90% 2.3 mph S3.7 kmh S 4.6 mph7.4 kmh 30.06 in1017.9 mb - 0.00 in0.0 mm 0.11 in2.8 mm
07:30 AM 41.1°F5.1°C 38.4°F3.6°C 90% 3.5 mph SSE5.6 kmh SSE 3.5 mph5.6 kmh 30.06 in1017.9 mb - 0.00 in0.0 mm 0.11 in2.8 mm
07:20 AM 41.2°F5.1°C 38.2°F3.4°C 89% Calm Calm 3.5 mph5.6 kmh 30.06 in1017.9 mb - 0.00 in0.0 mm 0.11 in2.8 mm
07:10 AM 41.1°F5.1°C 38.1°F3.4°C 89% 1.2 mph SE1.9 kmh SE 2.3 mph3.7 kmh 30.06 in1017.9 mb - 0.00 in0.0 mm 0.11 in2.8 mm
07:00 AM 41.5°F5.3°C 38.5°F3.6°C 89% 2.3 mph SE3.7 kmh SE 3.5 mph5.6 kmh 30.05 in1017.6 mb - 0.00 in0.0 mm 0.11 in2.8 mm
06:50 AM 41.8°F5.4°C 38.8°F3.8°C 89% 3.5 mph SE5.6 kmh SE 3.5 mph5.6 kmh 30.05 in1017.6 mb - 0.00 in0.0 mm 0.11 in2.8 mm
06:40 AM 41.8°F5.4°C 38.8°F3.8°C 89% 2.3 mph S3.7 kmh S 3.5 mph5.6 kmh 30.05 in1017.6 mb - 0.00 in0.0 mm 0.11 in2.8 mm
06:30 AM 41.7°F5.4°C 39.0°F3.9°C 90% 2.3 mph E3.7 kmh E 5.8 mph9.3 kmh 30.05 in1017.6 mb - 0.00 in0.0 mm 0.11 in2.8 mm
06:20 AM 41.6°F5.3°C 38.9°F3.8°C 90% 2.3 mph SE3.7 kmh SE 3.5 mph5.6 kmh 30.05 in1017.6 mb - 0.00 in0.0 mm 0.11 in2.8 mm
06:10 AM 41.6°F5.3°C 38.9°F3.8°C 90% 4.6 mph SE7.4 kmh SE 5.8 mph9.3 kmh 30.05 in1017.6 mb - 0.00 in0.0 mm 0.11 in2.8 mm
06:00 AM 41.4°F5.2°C 38.7°F3.7°C 90% 2.3 mph ESE3.7 kmh ESE 4.6 mph7.4 kmh 30.04 in1017.3 mb - 0.00 in0.0 mm 0.11 in2.8 mm
05:50 AM 41.3°F5.2°C 38.3°F3.5°C 89% 3.5 mph E5.6 kmh E 4.6 mph7.4 kmh 30.04 in1017.3 mb - 0.00 in0.0 mm 0.11 in2.8 mm
05:40 AM 41.3°F5.2°C 38.3°F3.5°C 89% 3.5 mph SE5.6 kmh SE 3.5 mph5.6 kmh 30.04 in1017.3 mb - 0.00 in0.0 mm 0.11 in2.8 mm
05:30 AM 41.4°F5.2°C 38.4°F3.6°C 89% 1.2 mph SE1.9 kmh SE 3.5 mph5.6 kmh 30.04 in1017.3 mb - 0.00 in0.0 mm 0.11 in2.8 mm
05:20 AM 41.4°F5.2°C 38.4°F3.6°C 89% 2.3 mph SSE3.7 kmh SSE 2.3 mph3.7 kmh 30.03 in1016.9 mb - 0.00 in0.0 mm 0.11 in2.8 mm
05:10 AM 41.3°F5.2°C 38.3°F3.5°C 89% 2.3 mph ESE3.7 kmh ESE 4.6 mph7.4 kmh 30.03 in1016.9 mb - 0.00 in0.0 mm 0.11 in2.8 mm
05:00 AM 41.3°F5.2°C 38.3°F3.5°C 89% 3.5 mph SE5.6 kmh SE 5.8 mph9.3 kmh 30.03 in1016.9 mb - 0.00 in0.0 mm 0.11 in2.8 mm
04:50 AM 41.1°F5.1°C 38.1°F3.4°C 89% 5.8 mph SE9.3 kmh SE 9.2 mph14.8 kmh 30.03 in1016.9 mb - 0.00 in0.0 mm 0.11 in2.8 mm
04:40 AM 41.1°F5.1°C 38.1°F3.4°C 89% 1.2 mph ESE1.9 kmh ESE 2.3 mph3.7 kmh 30.02 in1016.6 mb - 0.01 in0.3 mm 0.11 in2.8 mm
04:30 AM 41.3°F5.2°C 38.3°F3.5°C 89% 1.2 mph ESE1.9 kmh ESE 3.5 mph5.6 kmh 30.02 in1016.6 mb - 0.02 in0.5 mm 0.11 in2.8 mm
04:20 AM 41.4°F5.2°C 38.4°F3.6°C 89% 1.2 mph SSE1.9 kmh SSE 3.5 mph5.6 kmh 30.02 in1016.6 mb - 0.03 in0.8 mm 0.11 in2.8 mm
04:10 AM 41.6°F5.3°C 38.6°F3.7°C 89% 2.3 mph E3.7 kmh E 3.5 mph5.6 kmh 30.02 in1016.6 mb - 0.04 in1.0 mm 0.11 in2.8 mm
04:00 AM 41.4°F5.2°C 38.7°F3.7°C 90% 3.5 mph ESE5.6 kmh ESE 5.8 mph9.3 kmh 30.02 in1016.6 mb - 0.05 in1.3 mm 0.11 in2.8 mm
03:50 AM 41.4°F5.2°C 38.7°F3.7°C 90% 2.3 mph E3.7 kmh E 3.5 mph5.6 kmh 30.01 in1016.3 mb - 0.06 in1.5 mm 0.11 in2.8 mm
03:40 AM 41.6°F5.3°C 38.9°F3.8°C 90% 4.6 mph NE7.4 kmh NE 8.1 mph13.0 kmh 30.02 in1016.6 mb - 0.05 in1.3 mm 0.10 in2.5 mm
03:30 AM 41.9°F5.5°C 39.2°F4.0°C 90% 1.2 mph E1.9 kmh E 3.5 mph5.6 kmh 30.02 in1016.6 mb - 0.04 in1.0 mm 0.09 in2.3 mm
03:20 AM 42.0°F5.6°C 39.3°F4.1°C 90% Calm Calm -- 30.02 in1016.6 mb - 0.04 in1.0 mm 0.08 in2.0 mm
03:10 AM 42.1°F5.6°C 39.4°F4.1°C 90% 1.2 mph ESE1.9 kmh ESE 3.5 mph5.6 kmh 30.02 in1016.6 mb - 0.03 in0.8 mm 0.07 in1.8 mm
03:00 AM 42.3°F5.7°C 39.6°F4.2°C 90% Calm Calm 1.2 mph1.9 kmh 30.01 in1016.3 mb - 0.02 in0.5 mm 0.06 in1.5 mm
02:50 AM 42.7°F5.9°C 39.9°F4.4°C 90% Calm Calm 1.2 mph1.9 kmh 30.00 in1015.9 mb - 0.02 in0.5 mm 0.05 in1.3 mm
02:40 AM 43.1°F6.2°C 40.4°F4.7°C 90% 2.3 mph ENE3.7 kmh ENE 3.5 mph5.6 kmh 30.00 in1015.9 mb - 0.03 in0.8 mm 0.05 in1.3 mm
02:30 AM 43.4°F6.3°C 40.7°F4.8°C 90% Calm Calm 2.3 mph3.7 kmh 30.00 in1015.9 mb - 0.03 in0.8 mm 0.05 in1.3 mm
02:20 AM 43.6°F6.4°C 40.8°F4.9°C 90% Calm Calm 1.2 mph1.9 kmh 30.00 in1015.9 mb - 0.03 in0.8 mm 0.04 in1.0 mm
02:10 AM 43.6°F6.4°C 40.9°F4.9°C 90% 2.3 mph ENE3.7 kmh ENE 3.5 mph5.6 kmh 29.99 in1015.6 mb - 0.04 in1.0 mm 0.04 in1.0 mm
02:00 AM 43.6°F6.4°C 40.9°F4.9°C 90% 1.2 mph ENE1.9 kmh ENE 1.2 mph1.9 kmh 29.99 in1015.6 mb - 0.04 in1.0 mm 0.04 in1.0 mm
01:50 AM 43.6°F6.4°C 40.9°F4.9°C 90% Calm Calm 1.2 mph1.9 kmh 29.99 in1015.6 mb - 0.03 in0.8 mm 0.03 in0.8 mm
01:40 AM 43.7°F6.5°C 40.7°F4.8°C 89% Calm Calm -- 29.99 in1015.6 mb - 0.02 in0.5 mm 0.02 in0.5 mm
01:30 AM 43.7°F6.5°C 40.7°F4.8°C 89% Calm Calm -- 29.99 in1015.6 mb - 0.02 in0.5 mm 0.02 in0.5 mm
01:20 AM 43.7°F6.5°C 40.7°F4.8°C 89% 1.2 mph ENE1.9 kmh ENE 3.5 mph5.6 kmh 29.99 in1015.6 mb - 0.01 in0.3 mm 0.01 in0.3 mm
01:10 AM 43.6°F6.4°C 40.6°F4.8°C 89% 1.2 mph ENE1.9 kmh ENE 3.5 mph5.6 kmh 29.98 in1015.2 mb - 0.00 in0.0 mm 0.00 in0.0 mm
01:00 AM 43.6°F6.4°C 40.5°F4.7°C 89% Calm Calm 2.3 mph3.7 kmh 29.99 in1015.6 mb - 0.00 in0.0 mm 0.00 in0.0 mm
12:50 AM 43.7°F6.5°C 40.7°F4.8°C 89% 3.5 mph ENE5.6 kmh ENE 3.5 mph5.6 kmh 29.98 in1015.2 mb - 0.00 in0.0 mm 0.00 in0.0 mm
12:40 AM 43.7°F6.5°C 40.7°F4.8°C 89% 1.2 mph ENE1.9 kmh ENE 3.5 mph5.6 kmh 29.98 in1015.2 mb - 0.00 in0.0 mm 0.00 in0.0 mm
12:30 AM 43.8°F6.6°C 40.8°F4.9°C 89% 1.2 mph ENE1.9 kmh ENE 2.3 mph3.7 kmh 29.98 in1015.2 mb - 0.00 in0.0 mm 0.00 in0.0 mm
12:20 AM 43.9°F6.6°C 40.6°F4.8°C 88% 1.2 mph ENE1.9 kmh ENE 2.3 mph3.7 kmh 29.98 in1015.2 mb - 0.00 in0.0 mm 0.00 in0.0 mm
12:10 AM 44.0°F6.7°C 40.7°F4.8°C 88% 2.3 mph ENE3.7 kmh ENE 2.3 mph3.7 kmh 29.97 in1014.9 mb - 0.00 in0.0 mm 0.00 in0.0 mm
12:00 AM 43.9°F6.6°C 40.6°F4.8°C 88% 2.3 mph ENE3.7 kmh ENE 3.5 mph5.6 kmh 29.97 in1014.9 mb - 0.00 in0.0 mm 0.00 in0.0 mm